createdAt,value
2023-05-10T00:00:11.161Z,1002.62
2023-05-10T00:01:11.191Z,1002.63
2023-05-10T00:02:11.180Z,1002.63
2023-05-10T00:03:11.325Z,1002.63
2023-05-10T00:04:11.196Z,1002.64
2023-05-10T00:05:11.117Z,1002.62
2023-05-10T00:06:11.122Z,1002.63
2023-05-10T00:07:11.119Z,1002.64
2023-05-10T00:08:11.110Z,1002.63
2023-05-10T00:09:11.133Z,1002.62
2023-05-10T00:10:11.113Z,1002.62
2023-05-10T00:11:11.110Z,1002.61
2023-05-10T00:12:11.110Z,1002.62
2023-05-10T00:13:11.086Z,1002.61
2023-05-10T00:14:11.031Z,1002.62
2023-05-10T00:15:11.113Z,1002.63
2023-05-10T00:16:11.140Z,1002.63
2023-05-10T00:17:11.004Z,1002.63
2023-05-10T00:18:11.105Z,1002.64
2023-05-10T00:19:11.014Z,1002.64
2023-05-10T00:20:10.995Z,1002.63
2023-05-10T00:21:10.984Z,1002.61
2023-05-10T00:22:10.989Z,1002.60
2023-05-10T00:23:10.955Z,1002.61
2023-05-10T00:24:10.910Z,1002.62
2023-05-10T00:25:10.978Z,1002.63
2023-05-10T00:26:10.997Z,1002.64
2023-05-10T00:27:10.879Z,1002.65
2023-05-10T00:28:10.885Z,1002.65
2023-05-10T00:29:10.900Z,1002.66
2023-05-10T00:30:10.967Z,1002.67
2023-05-10T00:31:11.040Z,1002.67
2023-05-10T00:32:10.951Z,1002.67
2023-05-10T00:33:10.968Z,1002.66
2023-05-10T00:34:10.833Z,1002.66
2023-05-10T00:35:10.873Z,1002.66
2023-05-10T00:36:10.881Z,1002.66
2023-05-10T00:37:10.811Z,1002.66
2023-05-10T00:38:10.872Z,1002.66
2023-05-10T00:39:10.837Z,1002.65
2023-05-10T00:40:10.861Z,1002.64
2023-05-10T00:41:10.783Z,1002.62
2023-05-10T00:42:10.783Z,1002.62
2023-05-10T00:43:10.744Z,1002.62
2023-05-10T00:44:10.736Z,1002.64
2023-05-10T00:45:10.813Z,1002.66
2023-05-10T00:46:10.807Z,1002.66
2023-05-10T00:47:10.770Z,1002.66
2023-05-10T00:48:10.747Z,1002.67
2023-05-10T00:49:10.722Z,1002.66
2023-05-10T00:50:10.685Z,1002.66
2023-05-10T00:51:10.629Z,1002.68
2023-05-10T00:52:10.722Z,1002.69
2023-05-10T00:53:10.711Z,1002.68
2023-05-10T00:54:10.960Z,1002.70
2023-05-10T00:55:10.677Z,1002.69
2023-05-10T00:56:10.610Z,1002.69
2023-05-10T00:57:10.670Z,1002.68
2023-05-10T00:58:10.629Z,1002.68
2023-05-10T00:59:10.560Z,1002.67
2023-05-10T01:00:10.608Z,1002.67
2023-05-10T01:01:10.655Z,1002.67
2023-05-10T01:02:10.663Z,1002.67
2023-05-10T01:03:10.637Z,1002.68
2023-05-10T01:04:10.502Z,1002.70
2023-05-10T01:05:10.515Z,1002.70
2023-05-10T01:06:10.520Z,1002.73
2023-05-10T01:07:10.517Z,1002.72
2023-05-10T01:08:10.467Z,1002.72
2023-05-10T01:09:10.440Z,1002.75
2023-05-10T01:10:10.444Z,1002.73
2023-05-10T01:11:10.416Z,1002.74
2023-05-10T01:12:10.465Z,1002.75
2023-05-10T01:13:10.431Z,1002.72
2023-05-10T01:14:10.421Z,1002.75
2023-05-10T01:15:10.386Z,1002.73
2023-05-10T01:16:10.436Z,1002.74
2023-05-10T01:17:10.378Z,1002.77
2023-05-10T01:18:10.418Z,1002.75
2023-05-10T01:19:10.351Z,1002.77
2023-05-10T01:20:10.368Z,1002.78
2023-05-10T01:21:10.313Z,1002.82
2023-05-10T01:22:10.303Z,1002.81
2023-05-10T01:23:10.279Z,1002.83
2023-05-10T01:24:10.522Z,1002.83
2023-05-10T01:25:10.340Z,1002.83
2023-05-10T01:26:10.297Z,1002.84
2023-05-10T01:27:10.279Z,1002.85
2023-05-10T01:28:10.274Z,1002.86
2023-05-10T01:29:10.303Z,1002.85
2023-05-10T01:30:21.776Z,1002.86
2023-05-10T01:31:10.259Z,1002.87
2023-05-10T01:32:10.262Z,1002.89
2023-05-10T01:33:10.194Z,1002.88
2023-05-10T01:34:10.220Z,1002.87
2023-05-10T01:35:10.211Z,1002.88
2023-05-10T01:36:10.284Z,1002.89
2023-05-10T01:37:10.168Z,1002.88
2023-05-10T01:38:10.176Z,1002.90
2023-05-10T01:39:10.163Z,1002.92
2023-05-10T01:40:10.154Z,1002.92
2023-05-10T01:41:10.131Z,1002.95
2023-05-10T01:42:10.191Z,1002.96
2023-05-10T01:43:10.123Z,1002.98
2023-05-10T01:44:10.092Z,1002.98
2023-05-10T01:45:10.094Z,1002.98
2023-05-10T01:46:10.120Z,1002.99
2023-05-10T01:47:10.136Z,1002.99
2023-05-10T01:48:10.193Z,1003.00
2023-05-10T01:49:10.103Z,1003.00
2023-05-10T01:50:10.083Z,1003.01
2023-05-10T01:51:10.000Z,1003.01
2023-05-10T01:52:10.041Z,1003.03
2023-05-10T01:53:09.988Z,1003.03
2023-05-10T01:54:10.086Z,1003.04
2023-05-10T01:55:10.003Z,1003.05
2023-05-10T01:56:10.046Z,1003.06
2023-05-10T01:57:10.039Z,1003.06
2023-05-10T01:58:09.968Z,1003.06
2023-05-10T01:59:09.916Z,1003.07
2023-05-10T02:00:09.991Z,1003.07
2023-05-10T02:01:09.893Z,1003.05
2023-05-10T02:02:09.971Z,1003.04
2023-05-10T02:03:10.054Z,1003.04
2023-05-10T02:04:10.077Z,1003.03
2023-05-10T02:05:09.864Z,1003.03
2023-05-10T02:06:09.871Z,1003.04
2023-05-10T02:07:09.850Z,1003.04
2023-05-10T02:08:09.846Z,1003.04
2023-05-10T02:09:09.820Z,1003.04
2023-05-10T02:10:09.803Z,1003.04
2023-05-10T02:11:09.824Z,1003.05
2023-05-10T02:12:09.827Z,1003.05
2023-05-10T02:13:09.805Z,1003.05
2023-05-10T02:14:09.774Z,1003.06
2023-05-10T02:15:09.744Z,1003.06
2023-05-10T02:16:09.750Z,1003.07
2023-05-10T02:17:09.753Z,1003.09
2023-05-10T02:18:09.746Z,1003.09
2023-05-10T02:19:09.688Z,1003.11
2023-05-10T02:20:09.683Z,1003.12
2023-05-10T02:21:09.725Z,1003.14
2023-05-10T02:22:09.651Z,1003.15
2023-05-10T02:23:09.628Z,1003.16
2023-05-10T02:24:09.643Z,1003.16
2023-05-10T02:25:09.621Z,1003.17
2023-05-10T02:26:09.604Z,1003.18
2023-05-10T02:27:10.538Z,1003.19
2023-05-10T02:28:09.686Z,1003.21
2023-05-10T02:29:09.670Z,1003.24
2023-05-10T02:30:09.596Z,1003.26
2023-05-10T02:31:09.616Z,1003.27
2023-05-10T02:32:09.736Z,1003.29
2023-05-10T02:33:09.615Z,1003.29
2023-05-10T02:34:09.676Z,1003.28
2023-05-10T02:35:09.515Z,1003.27
2023-05-10T02:36:09.563Z,1003.26
2023-05-10T02:37:09.534Z,1003.25
2023-05-10T02:38:09.555Z,1003.26
2023-05-10T02:39:09.517Z,1003.25
2023-05-10T02:40:09.596Z,1003.25
2023-05-10T02:41:09.622Z,1003.24
2023-05-10T02:42:10.231Z,1003.23
2023-05-10T02:43:09.531Z,1003.22
2023-05-10T02:44:09.457Z,1003.21
2023-05-10T02:45:09.440Z,1003.20
2023-05-10T02:46:09.489Z,1003.18
2023-05-10T02:47:09.430Z,1003.19
2023-05-10T02:48:09.446Z,1003.19
2023-05-10T02:49:09.406Z,1003.19
2023-05-10T02:50:09.524Z,1003.19
2023-05-10T02:51:09.410Z,1003.20
2023-05-10T02:52:09.408Z,1003.20
2023-05-10T02:53:09.372Z,1003.21
2023-05-10T02:54:09.380Z,1003.21
2023-05-10T02:55:09.374Z,1003.21
2023-05-10T02:56:09.405Z,1003.20
2023-05-10T02:57:09.341Z,1003.19
2023-05-10T02:58:09.407Z,1003.18
2023-05-10T02:59:09.320Z,1003.17
2023-05-10T03:00:09.284Z,1003.17
2023-05-10T03:01:09.328Z,1003.18
2023-05-10T03:02:09.238Z,1003.18
2023-05-10T03:03:09.271Z,1003.20
2023-05-10T03:04:09.296Z,1003.21
2023-05-10T03:05:09.303Z,1003.22
2023-05-10T03:06:09.208Z,1003.23
2023-05-10T03:07:09.270Z,1003.23
2023-05-10T03:08:09.198Z,1003.23
2023-05-10T03:09:09.303Z,1003.23
2023-05-10T03:10:09.188Z,1003.25
2023-05-10T03:11:09.194Z,1003.26
2023-05-10T03:12:09.232Z,1003.28
2023-05-10T03:13:09.285Z,1003.29
2023-05-10T03:14:09.193Z,1003.31
2023-05-10T03:15:09.113Z,1003.33
2023-05-10T03:16:09.145Z,1003.34
2023-05-10T03:17:09.168Z,1003.35
2023-05-10T03:18:09.088Z,1003.36
2023-05-10T03:19:09.088Z,1003.36
2023-05-10T03:20:09.104Z,1003.36
2023-05-10T03:21:09.150Z,1003.36
2023-05-10T03:22:09.103Z,1003.37
2023-05-10T03:23:09.059Z,1003.37
2023-05-10T03:24:09.076Z,1003.38
2023-05-10T03:25:09.026Z,1003.38
2023-05-10T03:26:09.061Z,1003.40
2023-05-10T03:27:08.930Z,1003.41
2023-05-10T03:28:08.983Z,1003.40
2023-05-10T03:29:09.034Z,1003.40
2023-05-10T03:30:08.970Z,1003.40
2023-05-10T03:31:09.009Z,1003.40
2023-05-10T03:32:08.985Z,1003.40
2023-05-10T03:33:08.937Z,1003.39
2023-05-10T03:34:08.879Z,1003.38
2023-05-10T03:35:09.003Z,1003.37
2023-05-10T03:36:09.221Z,1003.38
2023-05-10T03:37:08.842Z,1003.39
2023-05-10T03:38:08.822Z,1003.39
2023-05-10T03:39:08.856Z,1003.39
2023-05-10T03:40:08.802Z,1003.39
2023-05-10T03:41:08.907Z,1003.40
2023-05-10T03:42:08.795Z,1003.42
2023-05-10T03:43:08.769Z,1003.44
2023-05-10T03:44:08.761Z,1003.45
2023-05-10T03:45:08.768Z,1003.47
2023-05-10T03:46:08.787Z,1003.48
2023-05-10T03:47:08.990Z,1003.48
2023-05-10T03:48:08.840Z,1003.50
2023-05-10T03:49:08.727Z,1003.51
2023-05-10T03:50:08.795Z,1003.52
2023-05-10T03:51:08.677Z,1003.53
2023-05-10T03:52:08.717Z,1003.55
2023-05-10T03:53:08.768Z,1003.56
2023-05-10T03:54:08.771Z,1003.56
2023-05-10T03:55:08.723Z,1003.56
2023-05-10T03:56:08.678Z,1003.56
2023-05-10T03:57:08.677Z,1003.54
2023-05-10T03:58:08.651Z,1003.53
2023-05-10T03:59:08.803Z,1003.52
2023-05-10T04:00:08.722Z,1003.53
2023-05-10T04:01:08.613Z,1003.53
2023-05-10T04:02:08.672Z,1003.54
2023-05-10T04:03:08.800Z,1003.57
2023-05-10T04:04:08.648Z,1003.58
2023-05-10T04:05:08.597Z,1003.60
2023-05-10T04:06:08.651Z,1003.62
2023-05-10T04:07:08.518Z,1003.62
2023-05-10T04:08:08.548Z,1003.63
2023-05-10T04:09:08.639Z,1003.63
2023-05-10T04:10:08.548Z,1003.62
2023-05-10T04:11:08.760Z,1003.61
2023-05-10T04:12:10.764Z,1003.61
2023-05-10T04:13:08.556Z,1003.60
2023-05-10T04:14:08.544Z,1003.59
2023-05-10T04:15:08.479Z,1003.59
2023-05-10T04:16:08.480Z,1003.59
2023-05-10T04:17:08.633Z,1003.58
2023-05-10T04:18:08.961Z,1003.58
2023-05-10T04:19:08.437Z,1003.58
2023-05-10T04:20:08.493Z,1003.58
2023-05-10T04:21:08.431Z,1003.59
2023-05-10T04:22:08.335Z,1003.58
2023-05-10T04:23:08.433Z,1003.59
2023-05-10T04:24:08.513Z,1003.59
2023-05-10T04:25:08.406Z,1003.59
2023-05-10T04:26:08.324Z,1003.59
2023-05-10T04:27:08.339Z,1003.58
2023-05-10T04:28:08.354Z,1003.58
2023-05-10T04:29:08.325Z,1003.59
2023-05-10T04:30:08.290Z,1003.60
2023-05-10T04:31:08.342Z,1003.61
2023-05-10T04:32:08.320Z,1003.62
2023-05-10T04:33:08.347Z,1003.61
2023-05-10T04:34:08.292Z,1003.62
2023-05-10T04:35:08.339Z,1003.62
2023-05-10T04:36:08.204Z,1003.62
2023-05-10T04:37:08.263Z,1003.62
2023-05-10T04:38:08.234Z,1003.63
2023-05-10T04:39:08.252Z,1003.62
2023-05-10T04:40:08.180Z,1003.63
2023-05-10T04:41:08.343Z,1003.62
2023-05-10T04:42:08.175Z,1003.63
2023-05-10T04:43:08.120Z,1003.64
2023-05-10T04:44:08.155Z,1003.65
2023-05-10T04:45:08.078Z,1003.66
2023-05-10T04:46:08.282Z,1003.67
2023-05-10T04:47:08.934Z,1003.69
2023-05-10T04:48:08.062Z,1003.70
2023-05-10T04:49:08.024Z,1003.70
2023-05-10T04:50:08.060Z,1003.71
2023-05-10T04:51:08.015Z,1003.71
2023-05-10T04:52:08.005Z,1003.71
2023-05-10T04:53:08.024Z,1003.72
2023-05-10T04:54:08.211Z,1003.74
2023-05-10T04:55:08.087Z,1003.76
2023-05-10T04:56:08.046Z,1003.77
2023-05-10T04:57:08.035Z,1003.80
2023-05-10T04:58:08.056Z,1003.81
2023-05-10T04:59:08.079Z,1003.83
2023-05-10T05:00:07.995Z,1003.83
2023-05-10T05:01:08.006Z,1003.83
2023-05-10T05:02:08.037Z,1003.84
2023-05-10T05:03:08.140Z,1003.84
2023-05-10T05:04:07.966Z,1003.83
2023-05-10T05:05:07.992Z,1003.81
2023-05-10T05:06:08.035Z,1003.80
2023-05-10T05:07:08.012Z,1003.79
2023-05-10T05:08:07.860Z,1003.78
2023-05-10T05:09:07.990Z,1003.78
2023-05-10T05:10:07.870Z,1003.78
2023-05-10T05:11:07.893Z,1003.80
2023-05-10T05:12:07.952Z,1003.82
2023-05-10T05:13:07.962Z,1003.83
2023-05-10T05:14:07.856Z,1003.85
2023-05-10T05:15:09.689Z,1003.86
2023-05-10T05:16:07.849Z,1003.87
2023-05-10T05:17:08.006Z,1003.89
2023-05-10T05:18:07.865Z,1003.89
2023-05-10T05:19:07.762Z,1003.89
2023-05-10T05:20:07.848Z,1003.89
2023-05-10T05:21:07.714Z,1003.88
2023-05-10T05:22:07.793Z,1003.86
2023-05-10T05:23:07.696Z,1003.87
2023-05-10T05:24:07.750Z,1003.86
2023-05-10T05:25:07.778Z,1003.85
2023-05-10T05:26:07.645Z,1003.86
2023-05-10T05:27:07.750Z,1003.86
2023-05-10T05:28:07.677Z,1003.89
2023-05-10T05:29:07.665Z,1003.90
2023-05-10T05:30:07.617Z,1003.91
2023-05-10T05:31:07.669Z,1003.92
2023-05-10T05:32:07.680Z,1003.95
2023-05-10T05:33:07.652Z,1003.95
2023-05-10T05:34:07.654Z,1003.98
2023-05-10T05:35:07.600Z,1004.01
2023-05-10T05:36:07.588Z,1004.03
2023-05-10T05:37:07.558Z,1004.05
2023-05-10T05:38:07.575Z,1004.05
2023-05-10T05:39:07.598Z,1004.06
2023-05-10T05:40:07.534Z,1004.06
2023-05-10T05:41:07.546Z,1004.04
2023-05-10T05:42:07.534Z,1004.03
2023-05-10T05:43:07.548Z,1004.01
2023-05-10T05:44:07.499Z,1004.00
2023-05-10T05:45:07.509Z,1003.99
2023-05-10T05:46:07.475Z,1004.01
2023-05-10T05:47:07.465Z,1004.02
2023-05-10T05:48:07.521Z,1004.04
2023-05-10T05:49:07.478Z,1004.07
2023-05-10T05:50:08.210Z,1004.08
2023-05-10T05:51:07.661Z,1004.09
2023-05-10T05:52:07.585Z,1004.11
2023-05-10T05:53:07.819Z,1004.13
2023-05-10T05:54:07.567Z,1004.14
2023-05-10T05:55:07.564Z,1004.14
2023-05-10T05:56:07.497Z,1004.15
2023-05-10T05:57:07.506Z,1004.17
2023-05-10T05:58:07.643Z,1004.17
2023-05-10T05:59:07.526Z,1004.19
2023-05-10T06:00:07.520Z,1004.20
2023-05-10T06:01:07.687Z,1004.21
2023-05-10T06:02:07.477Z,1004.24
2023-05-10T06:03:07.430Z,1004.24
2023-05-10T06:04:07.480Z,1004.26
2023-05-10T06:05:07.539Z,1004.26
2023-05-10T06:06:07.436Z,1004.27
2023-05-10T06:07:07.244Z,1004.27
2023-05-10T06:08:07.352Z,1004.29
2023-05-10T06:09:07.298Z,1004.30
2023-05-10T06:10:07.382Z,1004.32
2023-05-10T06:11:07.416Z,1004.32
2023-05-10T06:12:07.337Z,1004.34
2023-05-10T06:13:07.442Z,1004.35
2023-05-10T06:14:07.632Z,1004.37
2023-05-10T06:15:07.250Z,1004.38
2023-05-10T06:16:07.612Z,1004.40
2023-05-10T06:17:07.258Z,1004.42
2023-05-10T06:18:07.202Z,1004.43
2023-05-10T06:19:07.301Z,1004.43
2023-05-10T06:20:07.175Z,1004.44
2023-05-10T06:21:07.166Z,1004.45
2023-05-10T06:22:07.120Z,1004.45
2023-05-10T06:23:07.088Z,1004.45
2023-05-10T06:24:07.034Z,1004.42
2023-05-10T06:25:07.099Z,1004.45
2023-05-10T06:26:07.055Z,1004.46
2023-05-10T06:27:07.149Z,1004.46
2023-05-10T06:28:07.100Z,1004.47
2023-05-10T06:29:07.031Z,1004.50
2023-05-10T06:30:13.041Z,1004.52
2023-05-10T06:31:07.059Z,1004.54
2023-05-10T06:32:06.987Z,1004.57
2023-05-10T06:33:07.033Z,1004.60
2023-05-10T06:34:06.977Z,1004.62
2023-05-10T06:35:07.064Z,1004.65
2023-05-10T06:36:06.958Z,1004.65
2023-05-10T06:37:06.944Z,1004.67
2023-05-10T06:38:07.036Z,1004.67
2023-05-10T06:39:06.965Z,1004.69
2023-05-10T06:40:06.935Z,1004.67
2023-05-10T06:41:06.991Z,1004.68
2023-05-10T06:42:06.950Z,1004.67
2023-05-10T06:43:06.977Z,1004.66
2023-05-10T06:44:06.838Z,1004.64
2023-05-10T06:45:06.804Z,1004.63
2023-05-10T06:46:06.898Z,1004.62
2023-05-10T06:47:06.881Z,1004.63
2023-05-10T06:48:07.004Z,1004.63
2023-05-10T06:49:06.857Z,1004.61
2023-05-10T06:50:06.854Z,1004.62
2023-05-10T06:51:06.756Z,1004.63
2023-05-10T06:52:06.755Z,1004.63
2023-05-10T06:53:06.799Z,1004.64
2023-05-10T06:54:06.777Z,1004.66
2023-05-10T06:55:06.733Z,1004.68
2023-05-10T06:56:06.802Z,1004.68
2023-05-10T06:57:16.076Z,1004.69
2023-05-10T06:58:06.694Z,1004.70
2023-05-10T06:59:06.762Z,1004.71
2023-05-10T07:00:06.789Z,1004.72
2023-05-10T07:01:06.995Z,1004.72
2023-05-10T07:02:06.748Z,1004.70
2023-05-10T07:03:06.723Z,1004.70
2023-05-10T07:04:06.596Z,1004.69
2023-05-10T07:05:06.632Z,1004.71
2023-05-10T07:06:06.633Z,1004.70
2023-05-10T07:07:06.593Z,1004.71
2023-05-10T07:08:06.526Z,1004.75
2023-05-10T07:09:06.605Z,1004.76
2023-05-10T07:10:06.561Z,1004.76
2023-05-10T07:11:06.564Z,1004.77
2023-05-10T07:12:07.873Z,1004.78
2023-05-10T07:13:06.640Z,1004.79
2023-05-10T07:14:06.511Z,1004.81
2023-05-10T07:15:06.530Z,1004.82
2023-05-10T07:16:06.495Z,1004.83
2023-05-10T07:17:06.495Z,1004.81
2023-05-10T07:18:06.508Z,1004.81
2023-05-10T07:19:06.658Z,1004.80
2023-05-10T07:20:06.437Z,1004.80
2023-05-10T07:21:07.237Z,1004.77
2023-05-10T07:22:06.418Z,1004.78
2023-05-10T07:23:06.429Z,1004.78
2023-05-10T07:24:06.416Z,1004.79
2023-05-10T07:25:06.382Z,1004.80
2023-05-10T07:26:06.388Z,1004.79
2023-05-10T07:27:06.414Z,1004.81
2023-05-10T07:28:06.361Z,1004.80
2023-05-10T07:29:06.381Z,1004.80
2023-05-10T07:30:06.346Z,1004.80
2023-05-10T07:31:06.374Z,1004.78
2023-05-10T07:32:06.375Z,1004.80
2023-05-10T07:33:06.426Z,1004.80
2023-05-10T07:34:06.318Z,1004.80
2023-05-10T07:35:30.668Z,1004.80
2023-05-10T07:36:06.305Z,1004.81
2023-05-10T07:37:06.241Z,1004.80
2023-05-10T07:38:06.240Z,1004.79
2023-05-10T07:39:06.229Z,1004.78
2023-05-10T07:40:06.247Z,1004.78
2023-05-10T07:41:06.298Z,1004.80
2023-05-10T07:42:06.356Z,1004.78
2023-05-10T07:43:06.229Z,1004.77
2023-05-10T07:44:06.187Z,1004.77
2023-05-10T07:45:06.205Z,1004.79
2023-05-10T07:46:06.175Z,1004.80
2023-05-10T07:47:06.288Z,1004.80
2023-05-10T07:48:06.235Z,1004.80
2023-05-10T07:49:06.124Z,1004.81
2023-05-10T07:50:06.133Z,1004.82
2023-05-10T07:51:06.173Z,1004.84
2023-05-10T07:52:06.138Z,1004.85
2023-05-10T07:53:06.129Z,1004.86
2023-05-10T07:54:06.080Z,1004.86
2023-05-10T07:55:06.114Z,1004.86
2023-05-10T07:56:06.326Z,1004.87
2023-05-10T07:57:06.035Z,1004.88
2023-05-10T07:58:06.067Z,1004.88
2023-05-10T07:59:06.111Z,1004.87
2023-05-10T08:00:06.149Z,1004.86
2023-05-10T08:01:06.017Z,1004.88
2023-05-10T08:02:06.027Z,1004.89
2023-05-10T08:03:06.058Z,1004.89
2023-05-10T08:04:06.032Z,1004.91
2023-05-10T08:05:05.979Z,1004.92
2023-05-10T08:06:05.958Z,1004.93
2023-05-10T08:07:05.942Z,1004.95
2023-05-10T08:08:05.935Z,1004.97
2023-05-10T08:09:05.924Z,1004.97
2023-05-10T08:10:05.922Z,1004.99
2023-05-10T08:11:05.945Z,1005.01
2023-05-10T08:12:06.934Z,1005.02
2023-05-10T08:13:05.889Z,1005.03
2023-05-10T08:14:05.918Z,1005.04
2023-05-10T08:15:05.853Z,1005.05
2023-05-10T08:16:06.174Z,1005.06
2023-05-10T08:17:05.833Z,1005.07
2023-05-10T08:18:05.851Z,1005.08
2023-05-10T08:19:06.185Z,1005.08
2023-05-10T08:20:05.803Z,1005.08
2023-05-10T08:21:05.810Z,1005.09
2023-05-10T08:22:05.781Z,1005.09
2023-05-10T08:23:05.764Z,1005.10
2023-05-10T08:24:05.803Z,1005.13
2023-05-10T08:25:06.639Z,1005.12
2023-05-10T08:26:05.748Z,1005.11
2023-05-10T08:27:05.722Z,1005.12
2023-05-10T08:28:05.715Z,1005.13
2023-05-10T08:29:05.764Z,1005.12
2023-05-10T08:30:05.704Z,1005.12
2023-05-10T08:31:05.724Z,1005.12
2023-05-10T08:32:05.720Z,1005.14
2023-05-10T08:33:05.713Z,1005.15
2023-05-10T08:34:05.653Z,1005.15
2023-05-10T08:35:05.672Z,1005.16
2023-05-10T08:36:05.638Z,1005.17
2023-05-10T08:37:05.608Z,1005.16
2023-05-10T08:38:05.693Z,1005.16
2023-05-10T08:39:11.242Z,1005.17
2023-05-10T08:40:05.601Z,1005.17
2023-05-10T08:41:05.662Z,1005.18
2023-05-10T08:42:05.564Z,1005.16
2023-05-10T08:43:05.693Z,1005.21
2023-05-10T08:44:05.562Z,1005.23
2023-05-10T08:45:05.530Z,1005.24
2023-05-10T08:46:05.515Z,1005.26
2023-05-10T08:47:05.733Z,1005.26
2023-05-10T08:48:05.514Z,1005.27
2023-05-10T08:49:05.512Z,1005.27
2023-05-10T08:50:05.471Z,1005.28
2023-05-10T08:51:05.480Z,1005.28
2023-05-10T08:52:05.470Z,1005.31
2023-05-10T08:53:05.512Z,1005.31
2023-05-10T08:54:05.483Z,1005.30
2023-05-10T08:55:05.452Z,1005.32
2023-05-10T08:56:05.471Z,1005.33
2023-05-10T08:57:05.463Z,1005.35
2023-05-10T08:58:05.391Z,1005.36
2023-05-10T08:59:05.401Z,1005.38
2023-05-10T09:00:05.446Z,1005.41
2023-05-10T09:01:05.427Z,1005.44
2023-05-10T09:02:05.357Z,1005.43
2023-05-10T09:03:05.369Z,1005.43
2023-05-10T09:04:05.399Z,1005.45
2023-05-10T09:05:05.456Z,1005.45
2023-05-10T09:06:05.380Z,1005.47
2023-05-10T09:07:05.335Z,1005.47
2023-05-10T09:08:05.299Z,1005.50
2023-05-10T09:09:05.309Z,1005.50
2023-05-10T09:10:05.329Z,1005.52
2023-05-10T09:11:05.287Z,1005.54
2023-05-10T09:12:05.301Z,1005.55
2023-05-10T09:13:05.559Z,1005.55
2023-05-10T09:14:05.243Z,1005.57
2023-05-10T09:15:05.308Z,1005.59
2023-05-10T09:16:19.936Z,1005.62
2023-05-10T09:17:05.327Z,1005.61
2023-05-10T09:18:05.274Z,1005.64
2023-05-10T09:19:05.292Z,1005.65
2023-05-10T09:20:05.217Z,1005.65
2023-05-10T09:21:05.185Z,1005.64
2023-05-10T09:22:05.180Z,1005.63
2023-05-10T09:23:05.185Z,1005.63
2023-05-10T09:24:05.149Z,1005.63
2023-05-10T09:25:05.154Z,1005.62
2023-05-10T09:26:05.124Z,1005.62
2023-05-10T09:27:05.175Z,1005.62
2023-05-10T09:28:05.099Z,1005.61
2023-05-10T09:29:05.109Z,1005.62
2023-05-10T09:30:05.079Z,1005.63
2023-05-10T09:31:05.152Z,1005.66
2023-05-10T09:32:05.077Z,1005.66
2023-05-10T09:33:05.133Z,1005.65
2023-05-10T09:34:05.055Z,1005.66
2023-05-10T09:35:05.073Z,1005.66
2023-05-10T09:36:05.042Z,1005.67
2023-05-10T09:37:04.992Z,1005.67
2023-05-10T09:38:05.033Z,1005.64
2023-05-10T09:39:05.025Z,1005.64
2023-05-10T09:40:05.047Z,1005.65
2023-05-10T09:41:04.987Z,1005.66
2023-05-10T09:42:05.015Z,1005.67
2023-05-10T09:43:04.986Z,1005.69
2023-05-10T09:44:04.963Z,1005.70
2023-05-10T09:45:04.927Z,1005.71
2023-05-10T09:46:04.994Z,1005.72
2023-05-10T09:47:04.956Z,1005.72
2023-05-10T09:48:04.944Z,1005.71
2023-05-10T09:49:04.965Z,1005.73
2023-05-10T09:50:04.895Z,1005.72
2023-05-10T09:51:05.007Z,1005.77
2023-05-10T09:52:04.901Z,1005.74
2023-05-10T09:53:05.107Z,1005.73
2023-05-10T09:54:04.845Z,1005.76
2023-05-10T09:55:04.822Z,1005.75
2023-05-10T09:56:04.863Z,1005.75
2023-05-10T09:57:04.799Z,1005.77
2023-05-10T09:58:04.805Z,1005.78
2023-05-10T09:59:04.793Z,1005.77
2023-05-10T10:00:04.828Z,1005.79
2023-05-10T10:01:04.816Z,1005.80
2023-05-10T10:02:04.882Z,1005.79
2023-05-10T10:03:04.974Z,1005.76
2023-05-10T10:04:04.737Z,1005.74
2023-05-10T10:05:04.936Z,1005.76
2023-05-10T10:06:04.749Z,1005.77
2023-05-10T10:07:05.058Z,1005.79
2023-05-10T10:08:04.713Z,1005.80
2023-05-10T10:09:04.765Z,1005.89
2023-05-10T10:10:04.687Z,1005.87
2023-05-10T10:11:04.685Z,1005.88
2023-05-10T10:12:04.667Z,1005.88
2023-05-10T10:13:04.640Z,1005.91
2023-05-10T10:14:04.665Z,1005.92
2023-05-10T10:15:04.642Z,1005.91
2023-05-10T10:16:05.538Z,1005.90
2023-05-10T10:17:08.744Z,1005.89
2023-05-10T10:18:04.668Z,1005.96
2023-05-10T10:19:04.699Z,1005.89
2023-05-10T10:20:04.587Z,1005.95
2023-05-10T10:21:04.554Z,1005.92
2023-05-10T10:22:04.605Z,1005.90
2023-05-10T10:23:04.607Z,1005.89
2023-05-10T10:24:04.515Z,1005.90
2023-05-10T10:25:04.540Z,1005.88
2023-05-10T10:26:04.499Z,1005.91
2023-05-10T10:27:04.505Z,1005.92
2023-05-10T10:28:04.482Z,1005.92
2023-05-10T10:29:04.486Z,1005.96
2023-05-10T10:30:04.462Z,1005.97
2023-05-10T10:31:04.475Z,1005.96
2023-05-10T10:32:04.440Z,1005.96
2023-05-10T10:33:13.277Z,1005.98
2023-05-10T10:34:04.434Z,1005.98
2023-05-10T10:35:04.497Z,1006.00
2023-05-10T10:36:04.431Z,1005.97
2023-05-10T10:37:04.417Z,1006.00
2023-05-10T10:38:04.438Z,1005.99
2023-05-10T10:39:04.428Z,1005.99
2023-05-10T10:40:04.389Z,1005.99
2023-05-10T10:41:04.343Z,1005.98
2023-05-10T10:42:04.350Z,1006.00
2023-05-10T10:43:04.447Z,1006.00
2023-05-10T10:44:04.319Z,1006.00
2023-05-10T10:45:04.361Z,1005.98
2023-05-10T10:46:04.349Z,1005.96
2023-05-10T10:47:04.361Z,1005.96
2023-05-10T10:48:04.380Z,1005.96
2023-05-10T10:49:04.285Z,1005.99
2023-05-10T10:50:04.305Z,1006.02
2023-05-10T10:51:04.273Z,1006.01
2023-05-10T10:52:04.336Z,1006.02
2023-05-10T10:53:04.316Z,1006.03
2023-05-10T10:54:04.237Z,1006.02
2023-05-10T10:55:04.209Z,1006.01
2023-05-10T10:56:04.255Z,1005.99
2023-05-10T10:57:04.223Z,1006.00
2023-05-10T10:58:04.231Z,1005.98
2023-05-10T10:59:04.170Z,1005.98
2023-05-10T11:00:04.213Z,1006.02
2023-05-10T11:01:04.247Z,1006.03
2023-05-10T11:02:04.135Z,1006.03
2023-05-10T11:03:04.210Z,1006.03
2023-05-10T11:04:04.178Z,1006.04
2023-05-10T11:05:04.102Z,1006.08
2023-05-10T11:06:04.268Z,1006.10
2023-05-10T11:07:04.117Z,1006.09
2023-05-10T11:08:04.134Z,1006.12
2023-05-10T11:09:04.094Z,1006.11
2023-05-10T11:10:04.042Z,1006.13
2023-05-10T11:11:04.076Z,1006.12
2023-05-10T11:12:04.013Z,1006.13
2023-05-10T11:13:04.066Z,1006.16
2023-05-10T11:14:04.012Z,1006.14
2023-05-10T11:15:04.017Z,1006.15
2023-05-10T11:16:04.029Z,1006.18
2023-05-10T11:17:04.083Z,1006.15
2023-05-10T11:18:04.035Z,1006.14
2023-05-10T11:19:04.153Z,1006.14
2023-05-10T11:20:04.033Z,1006.16
2023-05-10T11:21:03.968Z,1006.17
2023-05-10T11:22:03.911Z,1006.16
2023-05-10T11:23:03.898Z,1006.16
2023-05-10T11:24:03.913Z,1006.16
2023-05-10T11:25:03.886Z,1006.21
2023-05-10T11:26:03.927Z,1006.22
2023-05-10T11:27:03.876Z,1006.24
2023-05-10T11:28:03.856Z,1006.23
2023-05-10T11:29:03.966Z,1006.23
2023-05-10T11:30:05.049Z,1006.22
2023-05-10T11:31:03.860Z,1006.26
2023-05-10T11:32:03.804Z,1006.25
2023-05-10T11:33:03.833Z,1006.25
2023-05-10T11:34:03.837Z,1006.24
2023-05-10T11:35:03.910Z,1006.26
2023-05-10T11:36:03.768Z,1006.26
2023-05-10T11:37:03.801Z,1006.22
2023-05-10T11:38:03.779Z,1006.26
2023-05-10T11:39:03.789Z,1006.26
2023-05-10T11:40:03.759Z,1006.27
2023-05-10T11:41:03.823Z,1006.29
2023-05-10T11:42:03.751Z,1006.29
2023-05-10T11:43:03.757Z,1006.27
2023-05-10T11:44:03.724Z,1006.28
2023-05-10T11:45:03.730Z,1006.31
2023-05-10T11:46:03.716Z,1006.29
2023-05-10T11:47:03.685Z,1006.27
2023-05-10T11:48:03.689Z,1006.28
2023-05-10T11:49:03.721Z,1006.30
2023-05-10T11:50:03.655Z,1006.31
2023-05-10T11:51:03.646Z,1006.28
2023-05-10T11:52:03.637Z,1006.29
2023-05-10T11:53:03.618Z,1006.31
2023-05-10T11:54:03.599Z,1006.33
2023-05-10T11:55:03.615Z,1006.38
2023-05-10T11:56:03.585Z,1006.39
2023-05-10T11:57:03.672Z,1006.39
2023-05-10T11:58:03.554Z,1006.40
2023-05-10T11:59:03.537Z,1006.38
2023-05-10T12:00:03.602Z,1006.38
2023-05-10T12:01:03.549Z,1006.40
2023-05-10T12:02:03.550Z,1006.39
2023-05-10T12:03:03.758Z,1006.40
2023-05-10T12:04:03.709Z,1006.42
2023-05-10T12:05:03.607Z,1006.43